createdAt,value
2023-10-20T00:02:29.088Z,8.40
2023-10-20T00:04:56.228Z,8.40
2023-10-20T00:07:23.137Z,8.40
2023-10-20T00:09:54.257Z,8.40
2023-10-20T00:12:21.162Z,8.40
2023-10-20T00:14:48.024Z,8.40
2023-10-20T00:17:15.466Z,8.30
2023-10-20T00:19:42.363Z,8.30
2023-10-20T00:22:09.325Z,8.30
2023-10-20T00:24:36.135Z,8.40
2023-10-20T00:27:04.414Z,8.30
2023-10-20T00:29:31.330Z,8.30
2023-10-20T00:31:58.300Z,8.40
2023-10-20T00:34:25.266Z,8.30
2023-10-20T00:36:52.124Z,8.30
2023-10-20T00:39:18.996Z,8.30
2023-10-20T00:41:45.873Z,8.30
2023-10-20T00:44:12.735Z,8.30
2023-10-20T00:46:39.628Z,8.30
2023-10-20T00:49:06.583Z,8.30
2023-10-20T00:51:33.656Z,8.30
2023-10-20T00:54:01.260Z,8.30
2023-10-20T00:56:30.115Z,8.30
2023-10-20T00:58:57.440Z,8.30
2023-10-20T01:01:24.534Z,8.30
2023-10-20T01:03:51.736Z,8.30
2023-10-20T01:06:18.709Z,8.30
2023-10-20T01:08:45.607Z,8.30
2023-10-20T01:11:12.579Z,8.30
2023-10-20T01:13:39.521Z,8.30
2023-10-20T01:16:06.450Z,8.30
2023-10-20T01:18:33.708Z,8.30
2023-10-20T01:21:00.566Z,8.30
2023-10-20T01:23:27.529Z,8.30
2023-10-20T01:25:54.483Z,8.30
2023-10-20T01:28:21.500Z,8.20
2023-10-20T01:30:48.833Z,8.30
2023-10-20T01:33:15.998Z,8.30
2023-10-20T01:35:42.964Z,8.30
2023-10-20T01:38:10.045Z,8.20
2023-10-20T01:40:36.875Z,8.20
2023-10-20T01:43:03.879Z,8.30
2023-10-20T01:45:30.875Z,8.20
2023-10-20T01:47:57.831Z,8.20
2023-10-20T01:50:25.389Z,8.20
2023-10-20T01:52:52.424Z,8.20
2023-10-20T01:55:19.550Z,8.20
2023-10-20T01:57:46.523Z,8.20
2023-10-20T02:00:18.174Z,8.20
2023-10-20T02:02:45.162Z,8.20
2023-10-20T02:05:13.688Z,8.20
2023-10-20T02:07:40.935Z,8.20
2023-10-20T02:10:08.402Z,8.20
2023-10-20T02:12:35.915Z,8.20
2023-10-20T02:15:02.965Z,8.20
2023-10-20T02:17:30.311Z,8.20
2023-10-20T02:19:58.619Z,8.20
2023-10-20T02:22:26.391Z,8.20
2023-10-20T02:24:54.245Z,8.20
2023-10-20T02:27:21.295Z,8.20
2023-10-20T02:29:48.138Z,8.20
2023-10-20T02:32:15.123Z,8.20
2023-10-20T02:34:42.239Z,8.20
2023-10-20T02:37:13.174Z,8.20
2023-10-20T02:39:40.467Z,8.20
2023-10-20T02:42:07.418Z,8.20
2023-10-20T02:44:34.508Z,8.20
2023-10-20T02:47:01.563Z,8.20
2023-10-20T02:49:28.475Z,8.20
2023-10-20T02:51:56.303Z,8.20
2023-10-20T02:54:23.263Z,8.10
2023-10-20T02:56:50.181Z,8.10
2023-10-20T02:59:17.012Z,8.20
2023-10-20T03:01:44.690Z,8.20
2023-10-20T03:04:11.726Z,8.20
2023-10-20T03:06:38.852Z,8.20
2023-10-20T03:09:05.729Z,8.10
2023-10-20T03:11:32.657Z,8.20
2023-10-20T03:13:59.625Z,8.20
2023-10-20T03:16:26.581Z,8.10
2023-10-20T03:18:53.481Z,8.20
2023-10-20T03:21:22.217Z,8.10
2023-10-20T03:23:49.168Z,8.10
2023-10-20T03:26:16.179Z,8.10
2023-10-20T03:28:43.034Z,8.10
2023-10-20T03:31:10.077Z,8.10
2023-10-20T03:33:36.976Z,8.10
2023-10-20T03:36:05.061Z,8.10
2023-10-20T03:38:32.708Z,8.20
2023-10-20T03:41:07.365Z,8.10
2023-10-20T03:43:36.081Z,8.10
2023-10-20T03:46:05.124Z,8.10
2023-10-20T03:48:34.654Z,8.10
2023-10-20T03:51:02.270Z,8.10
2023-10-20T03:53:30.512Z,8.10
2023-10-20T03:56:01.784Z,8.10
2023-10-20T03:58:30.581Z,8.10
2023-10-20T04:00:59.341Z,8.10
2023-10-20T04:03:26.588Z,8.10
2023-10-20T04:05:54.530Z,8.00
2023-10-20T04:08:22.773Z,8.10
2023-10-20T04:10:50.033Z,8.10
2023-10-20T04:13:16.892Z,8.00
2023-10-20T04:15:43.832Z,8.10
2023-10-20T04:18:10.848Z,8.10
2023-10-20T04:20:42.504Z,8.10
2023-10-20T04:23:09.992Z,8.10
2023-10-20T04:25:40.604Z,8.00
2023-10-20T04:28:10.729Z,8.10
2023-10-20T04:30:56.052Z,8.10
2023-10-20T04:33:41.472Z,8.00
2023-10-20T04:36:26.922Z,8.10
2023-10-20T04:39:23.073Z,8.00
2023-10-20T04:41:52.845Z,8.10
2023-10-20T04:44:19.895Z,8.00
2023-10-20T04:46:55.120Z,8.00
2023-10-20T04:49:40.825Z,8.10
2023-10-20T04:52:28.067Z,8.00
2023-10-20T04:55:01.046Z,8.00
2023-10-20T04:57:51.446Z,8.00
2023-10-20T05:00:24.054Z,8.00
2023-10-20T05:02:52.243Z,8.00
2023-10-20T05:05:26.537Z,8.00
2023-10-20T05:08:00.300Z,8.00
2023-10-20T05:10:28.260Z,8.00
2023-10-20T05:12:55.195Z,8.00
2023-10-20T05:15:22.315Z,7.90
2023-10-20T05:17:51.790Z,8.00
2023-10-20T05:20:21.530Z,8.00
2023-10-20T05:22:49.455Z,7.90
2023-10-20T05:25:16.484Z,8.00
2023-10-20T05:27:44.106Z,7.90
2023-10-20T05:30:11.232Z,8.00
2023-10-20T05:32:38.773Z,7.90
2023-10-20T05:35:08.609Z,7.90
2023-10-20T05:37:35.795Z,7.90
2023-10-20T05:40:04.741Z,7.90
2023-10-20T05:42:33.229Z,7.90
2023-10-20T05:45:04.021Z,7.90
2023-10-20T05:47:31.621Z,7.80
2023-10-20T05:50:00.475Z,7.90
2023-10-20T05:52:27.501Z,7.90
2023-10-20T05:54:55.366Z,7.90
2023-10-20T05:57:23.707Z,7.80
2023-10-20T05:59:51.219Z,7.80
2023-10-20T06:02:18.134Z,7.80
2023-10-20T06:04:45.294Z,7.80
2023-10-20T06:07:12.665Z,7.80
2023-10-20T06:09:40.789Z,7.80
2023-10-20T06:12:11.588Z,7.80
2023-10-20T06:14:38.766Z,7.80
2023-10-20T06:17:05.699Z,7.80
2023-10-20T06:19:32.874Z,7.80
2023-10-20T06:22:01.597Z,7.80
2023-10-20T06:24:29.266Z,7.80
2023-10-20T06:27:03.456Z,7.80
2023-10-20T06:29:34.326Z,7.80
2023-10-20T06:32:19.820Z,7.80
2023-10-20T06:34:48.005Z,7.80
2023-10-20T06:37:25.539Z,7.80
2023-10-20T06:39:52.753Z,7.80
2023-10-20T06:42:21.118Z,7.80
2023-10-20T06:44:49.823Z,7.80
2023-10-20T06:47:16.779Z,7.80
2023-10-20T06:49:45.652Z,7.80
2023-10-20T06:52:18.062Z,7.90
2023-10-20T06:55:15.227Z,7.90
2023-10-20T06:57:37.605Z,7.80
2023-10-20T07:00:07.797Z,7.90
2023-10-20T07:02:35.332Z,7.80
2023-10-20T07:05:03.025Z,7.90
2023-10-20T07:07:29.973Z,7.80
2023-10-20T07:09:56.868Z,7.80
2023-10-20T07:12:23.717Z,7.80
2023-10-20T07:14:50.830Z,7.80
2023-10-20T07:17:17.820Z,7.80
2023-10-20T07:19:44.871Z,7.80
2023-10-20T07:22:11.771Z,7.80
2023-10-20T07:24:40.704Z,7.80
2023-10-20T07:27:07.749Z,7.80
2023-10-20T07:29:38.023Z,7.80
2023-10-20T07:32:08.726Z,7.80
2023-10-20T07:34:35.758Z,7.70
2023-10-20T07:37:02.682Z,7.80
2023-10-20T07:39:29.824Z,7.70
2023-10-20T07:41:56.716Z,7.70
2023-10-20T07:44:24.598Z,7.70
2023-10-20T07:46:52.197Z,7.70
2023-10-20T07:49:19.129Z,7.70
2023-10-20T07:51:46.156Z,7.70
2023-10-20T07:54:13.742Z,7.70
2023-10-20T07:56:40.759Z,7.70
2023-10-20T07:59:09.044Z,7.70
2023-10-20T08:01:36.151Z,7.70
2023-10-20T08:04:03.855Z,7.70
2023-10-20T08:06:31.554Z,7.70
2023-10-20T08:08:58.805Z,7.70
2023-10-20T08:11:25.868Z,7.70
2023-10-20T08:13:52.857Z,7.70
2023-10-20T08:16:23.644Z,7.70
2023-10-20T08:18:52.356Z,7.70
2023-10-20T08:21:20.513Z,7.70
2023-10-20T08:23:48.284Z,7.70
2023-10-20T08:26:21.110Z,7.70
2023-10-20T08:28:50.249Z,7.70
2023-10-20T08:31:22.956Z,7.70
2023-10-20T08:33:52.767Z,7.70
2023-10-20T08:36:23.799Z,7.70
2023-10-20T08:38:52.564Z,7.70
2023-10-20T08:41:22.898Z,7.60
2023-10-20T08:43:50.811Z,7.60
2023-10-20T08:46:19.125Z,7.60
2023-10-20T08:48:49.880Z,7.60
2023-10-20T08:51:19.493Z,7.60
2023-10-20T08:53:47.630Z,7.60
2023-10-20T08:56:15.073Z,7.60
2023-10-20T08:58:46.573Z,7.60
2023-10-20T09:01:14.779Z,7.60
2023-10-20T09:03:45.030Z,7.60
2023-10-20T09:06:15.647Z,7.60
2023-10-20T09:08:51.694Z,7.60
2023-10-20T09:11:26.415Z,7.60
2023-10-20T09:13:54.526Z,7.60
2023-10-20T09:16:22.404Z,7.60
2023-10-20T09:18:54.554Z,7.50
2023-10-20T09:21:25.853Z,7.50
2023-10-20T09:23:58.748Z,7.50
2023-10-20T09:26:28.006Z,7.50
2023-10-20T09:28:57.309Z,7.50
2023-10-20T09:31:26.564Z,7.50
2023-10-20T09:33:53.787Z,7.50
2023-10-20T09:36:21.472Z,7.50
2023-10-20T09:38:56.320Z,7.50
2023-10-20T09:41:28.565Z,7.50
2023-10-20T09:44:10.031Z,7.50
2023-10-20T09:46:55.153Z,7.50
2023-10-20T09:49:27.614Z,7.40
2023-10-20T09:51:57.987Z,7.50
2023-10-20T09:54:33.440Z,7.40
2023-10-20T09:57:02.009Z,7.50
2023-10-20T09:59:29.722Z,7.40
2023-10-20T10:01:58.153Z,7.40
2023-10-20T10:04:41.214Z,7.40
2023-10-20T10:07:09.318Z,7.40
2023-10-20T10:09:41.626Z,7.40
2023-10-20T10:12:10.579Z,7.40
2023-10-20T10:14:38.542Z,7.40
2023-10-20T10:17:11.324Z,7.40
2023-10-20T10:19:52.404Z,7.40
2023-10-20T10:22:28.167Z,7.40
2023-10-20T10:24:57.092Z,7.40
2023-10-20T10:27:28.991Z,7.40
2023-10-20T10:30:06.949Z,7.40
2023-10-20T10:32:42.401Z,7.40
2023-10-20T10:35:09.501Z,7.40
2023-10-20T10:37:39.921Z,7.30
2023-10-20T10:40:12.206Z,7.30
2023-10-20T10:42:47.767Z,7.30
2023-10-20T10:45:30.320Z,7.30
2023-10-20T10:48:07.113Z,7.30
2023-10-20T10:50:36.762Z,7.30
2023-10-20T10:53:04.164Z,7.30
2023-10-20T10:55:31.949Z,7.30
2023-10-20T10:57:59.206Z,7.30
2023-10-20T11:00:37.396Z,7.30
2023-10-20T11:03:07.068Z,7.30
2023-10-20T11:05:34.664Z,7.30
2023-10-20T11:08:09.573Z,7.30
2023-10-20T11:10:39.082Z,7.30
2023-10-20T11:13:22.179Z,7.30
2023-10-20T11:15:50.589Z,7.30
2023-10-20T11:18:18.223Z,7.30
2023-10-20T11:20:48.939Z,7.30
2023-10-20T11:23:20.755Z,7.30
2023-10-20T11:25:49.964Z,7.30
2023-10-20T11:28:17.550Z,7.20
2023-10-20T11:30:47.045Z,7.20
2023-10-20T11:33:16.836Z,7.20
2023-10-20T11:35:45.241Z,7.20
2023-10-20T11:38:16.078Z,7.20
2023-10-20T11:40:43.131Z,7.20
2023-10-20T11:43:10.134Z,7.20
2023-10-20T11:45:36.982Z,7.20
2023-10-20T11:48:04.275Z,7.20
2023-10-20T11:50:31.565Z,7.20
2023-10-20T11:52:58.535Z,7.20
2023-10-20T11:55:25.594Z,7.20
2023-10-20T11:57:52.626Z,7.20
2023-10-20T12:00:20.271Z,7.20
2023-10-20T12:02:47.293Z,7.20
2023-10-20T12:05:14.327Z,7.20
2023-10-20T12:07:41.239Z,7.20
2023-10-20T12:10:08.681Z,7.20
2023-10-20T12:12:35.843Z,7.20
2023-10-20T12:15:03.953Z,7.20
2023-10-20T12:17:31.249Z,7.20
2023-10-20T12:19:58.365Z,7.20
2023-10-20T12:22:27.155Z,7.20
2023-10-20T12:24:54.407Z,7.20
2023-10-20T12:27:22.477Z,7.30
2023-10-20T12:29:49.784Z,7.30
2023-10-20T12:32:17.714Z,7.30
2023-10-20T12:34:44.754Z,7.30
2023-10-20T12:37:12.089Z,7.30
2023-10-20T12:39:41.240Z,7.30
2023-10-20T12:42:08.814Z,7.30
2023-10-20T12:44:36.525Z,7.30
2023-10-20T12:47:04.372Z,7.30
2023-10-20T12:49:33.033Z,7.20
2023-10-20T12:52:03.271Z,7.20
2023-10-20T12:54:30.837Z,7.20
2023-10-20T12:57:00.010Z,7.20
2023-10-20T12:59:27.331Z,7.20
2023-10-20T13:01:54.647Z,7.10
2023-10-20T13:04:22.097Z,7.10
2023-10-20T13:06:59.228Z,7.10
2023-10-20T13:09:28.332Z,7.10
2023-10-20T13:11:58.667Z,7.10
2023-10-20T13:14:26.746Z,7.10
2023-10-20T13:16:53.814Z,7.10
2023-10-20T13:19:20.688Z,7.00
2023-10-20T13:21:48.402Z,7.00
2023-10-20T13:24:15.454Z,7.00
2023-10-20T13:26:42.379Z,7.00
2023-10-20T13:29:09.353Z,7.00
2023-10-20T13:31:36.255Z,7.00
2023-10-20T13:34:04.032Z,7.00
2023-10-20T13:36:31.092Z,7.00
2023-10-20T13:38:58.126Z,7.00
2023-10-20T13:41:25.380Z,7.00
2023-10-20T13:43:53.201Z,7.00
2023-10-20T13:46:20.621Z,7.00
2023-10-20T13:48:48.386Z,6.90
2023-10-20T13:51:15.556Z,6.90
2023-10-20T13:53:42.610Z,6.90
2023-10-20T13:56:10.093Z,6.90
2023-10-20T13:58:37.007Z,6.90
2023-10-20T14:01:04.166Z,6.90
2023-10-20T14:03:31.384Z,6.90
2023-10-20T14:05:58.536Z,6.90
2023-10-20T14:08:26.187Z,6.90
2023-10-20T14:10:55.304Z,6.90
2023-10-20T14:13:28.221Z,6.90
2023-10-20T14:15:55.174Z,6.90
2023-10-20T14:18:23.068Z,6.90
2023-10-20T14:20:50.267Z,6.90
2023-10-20T14:23:19.100Z,6.90
2023-10-20T14:25:46.233Z,6.90
2023-10-20T14:28:13.450Z,6.80
2023-10-20T14:30:40.308Z,6.80
2023-10-20T14:33:07.224Z,6.80
2023-10-20T14:35:37.257Z,6.80
2023-10-20T14:38:04.317Z,6.80
2023-10-20T14:40:31.154Z,6.80
2023-10-20T14:42:58.001Z,6.80
2023-10-20T14:45:24.942Z,6.80
2023-10-20T14:47:51.840Z,6.80
2023-10-20T14:50:19.041Z,6.80
2023-10-20T14:52:45.975Z,6.80
2023-10-20T14:55:14.011Z,6.80
2023-10-20T14:57:41.454Z,6.70
2023-10-20T15:00:11.365Z,6.80
2023-10-20T15:02:39.780Z,6.70
2023-10-20T15:05:07.774Z,6.70
2023-10-20T15:07:37.415Z,6.70
2023-10-20T15:10:05.157Z,6.70
2023-10-20T15:12:32.269Z,6.70
2023-10-20T15:14:59.588Z,6.70
2023-10-20T15:17:26.782Z,6.70
2023-10-20T15:19:53.909Z,6.70
2023-10-20T15:22:20.845Z,6.70
2023-10-20T15:24:49.714Z,6.70
2023-10-20T15:27:19.045Z,6.70
2023-10-20T15:29:47.044Z,6.60
2023-10-20T15:32:16.485Z,6.60
2023-10-20T15:34:43.500Z,6.70
2023-10-20T15:37:10.420Z,6.60
2023-10-20T15:39:49.184Z,6.60
2023-10-20T15:42:25.054Z,6.70
2023-10-20T15:44:51.951Z,6.60
2023-10-20T15:47:19.002Z,6.60
2023-10-20T15:49:45.895Z,6.60
2023-10-20T15:52:12.981Z,6.60
2023-10-20T15:54:39.968Z,6.60
2023-10-20T15:57:07.382Z,6.60
2023-10-20T15:59:34.753Z,6.60
2023-10-20T16:02:01.899Z,6.60
2023-10-20T16:04:28.930Z,6.60
2023-10-20T16:06:55.956Z,6.60
2023-10-20T16:09:23.017Z,6.60
2023-10-20T16:11:49.991Z,6.60
2023-10-20T16:14:17.050Z,6.60
2023-10-20T16:16:43.954Z,6.60
2023-10-20T16:19:12.992Z,6.60
2023-10-20T16:21:40.280Z,6.60
2023-10-20T16:24:07.567Z,6.60
2023-10-20T16:26:34.634Z,6.60
2023-10-20T16:29:01.484Z,6.60
2023-10-20T16:31:28.409Z,6.60
2023-10-20T16:33:55.458Z,6.60
2023-10-20T16:36:22.305Z,6.60
2023-10-20T16:38:51.993Z,6.60
2023-10-20T16:41:19.107Z,6.60
2023-10-20T16:43:46.170Z,6.60
2023-10-20T16:46:13.137Z,6.60
2023-10-20T16:48:41.740Z,6.60
2023-10-20T16:51:09.061Z,6.60
2023-10-20T16:53:36.534Z,6.60
2023-10-20T16:56:04.698Z,6.60
2023-10-20T16:58:31.640Z,6.70
2023-10-20T17:01:04.139Z,6.70
2023-10-20T17:03:31.630Z,6.70
2023-10-20T17:05:58.793Z,6.70
2023-10-20T17:08:27.253Z,6.70
2023-10-20T17:10:55.923Z,6.70
2023-10-20T17:13:22.896Z,6.70
2023-10-20T17:15:49.804Z,6.70
2023-10-20T17:18:16.798Z,6.70
2023-10-20T17:20:43.789Z,6.80
2023-10-20T17:23:11.248Z,6.80
2023-10-20T17:25:39.462Z,6.80
2023-10-20T17:28:06.610Z,6.80
2023-10-20T17:30:37.571Z,6.80
2023-10-20T17:33:05.580Z,6.80
2023-10-20T17:35:35.977Z,6.80
2023-10-20T17:38:03.032Z,6.80
2023-10-20T17:40:29.888Z,6.90
2023-10-20T17:42:56.856Z,6.90
2023-10-20T17:45:24.220Z,6.90
2023-10-20T17:47:51.278Z,6.80
2023-10-20T17:50:18.600Z,6.90
2023-10-20T17:52:46.294Z,6.90
2023-10-20T17:55:13.269Z,6.90
2023-10-20T17:57:40.138Z,6.90
2023-10-20T18:00:13.138Z,6.90
2023-10-20T18:02:40.395Z,6.90
2023-10-20T18:05:07.607Z,6.90
2023-10-20T18:07:34.493Z,7.00
2023-10-20T18:10:01.433Z,6.90
2023-10-20T18:12:28.307Z,7.00
2023-10-20T18:14:55.239Z,7.00
2023-10-20T18:17:22.891Z,7.00
2023-10-20T18:19:49.748Z,7.00
2023-10-20T18:22:17.228Z,7.00
2023-10-20T18:24:44.361Z,7.00
2023-10-20T18:27:11.307Z,7.10
2023-10-20T18:29:38.586Z,7.10
2023-10-20T18:32:07.096Z,7.10
2023-10-20T18:34:33.958Z,7.10
2023-10-20T18:37:00.803Z,7.10
2023-10-20T18:39:27.752Z,7.10
2023-10-20T18:41:54.750Z,7.10
2023-10-20T18:44:21.823Z,7.10
2023-10-20T18:46:48.762Z,7.20
2023-10-20T18:49:15.769Z,7.20
2023-10-20T18:51:43.626Z,7.20
2023-10-20T18:54:11.128Z,7.20
2023-10-20T18:56:38.407Z,7.20
2023-10-20T18:59:06.319Z,7.20
2023-10-20T19:01:33.364Z,7.30
2023-10-20T19:04:02.301Z,7.30
2023-10-20T19:06:29.747Z,7.30
2023-10-20T19:08:56.802Z,7.30
2023-10-20T19:11:23.890Z,7.30
2023-10-20T19:13:50.958Z,7.40
2023-10-20T19:16:19.263Z,7.30
2023-10-20T19:18:46.393Z,7.40
2023-10-20T19:21:13.399Z,7.40
2023-10-20T19:23:40.481Z,7.40
2023-10-20T19:26:11.225Z,7.40
2023-10-20T19:28:39.195Z,7.40
2023-10-20T19:31:08.906Z,7.40
2023-10-20T19:33:37.148Z,7.50
2023-10-20T19:36:06.312Z,7.50
2023-10-20T19:38:36.650Z,7.50
2023-10-20T19:41:03.842Z,7.50
2023-10-20T19:43:30.705Z,7.50
2023-10-20T19:45:57.635Z,7.60
2023-10-20T19:48:24.716Z,7.60
2023-10-20T19:50:51.896Z,7.60
2023-10-20T19:53:18.943Z,7.60
2023-10-20T19:55:48.953Z,7.60
2023-10-20T19:58:15.979Z,7.70
2023-10-20T20:00:42.980Z,7.70
2023-10-20T20:03:12.024Z,7.70
2023-10-20T20:05:39.210Z,7.70
2023-10-20T20:08:06.411Z,7.80
2023-10-20T20:10:33.369Z,7.80
2023-10-20T20:13:00.255Z,7.80
2023-10-20T20:15:27.175Z,7.80
2023-10-20T20:17:56.425Z,7.90
2023-10-20T20:20:23.365Z,7.90
2023-10-20T20:22:50.241Z,7.90
2023-10-20T20:25:17.144Z,7.90
2023-10-20T20:27:44.012Z,8.00
2023-10-20T20:30:11.444Z,8.00
2023-10-20T20:32:38.563Z,8.00
2023-10-20T20:35:07.311Z,8.00
2023-10-20T20:37:34.487Z,8.10
2023-10-20T20:40:01.404Z,8.10
2023-10-20T20:42:28.284Z,8.10
2023-10-20T20:44:55.225Z,8.20
2023-10-20T20:47:22.102Z,8.20
2023-10-20T20:49:48.955Z,8.20
2023-10-20T20:52:15.840Z,8.30
2023-10-20T20:54:42.995Z,8.40
2023-10-20T20:57:10.037Z,8.40
2023-10-20T20:59:37.166Z,8.40
2023-10-20T21:02:04.360Z,8.50
2023-10-20T21:04:31.322Z,8.50
2023-10-20T21:06:58.697Z,8.50
2023-10-20T21:09:25.662Z,8.60
2023-10-20T21:11:52.546Z,8.70
2023-10-20T21:14:19.445Z,8.60
2023-10-20T21:16:47.184Z,8.70
2023-10-20T21:19:14.923Z,8.70
2023-10-20T21:21:41.937Z,8.80
2023-10-20T21:24:09.362Z,8.80
2023-10-20T21:26:36.410Z,8.80
2023-10-20T21:29:05.405Z,8.80
2023-10-20T21:31:32.712Z,8.90
2023-10-20T21:33:59.550Z,8.90
2023-10-20T21:36:26.379Z,8.90
2023-10-20T21:38:53.281Z,9.00
2023-10-20T21:41:20.282Z,9.00
2023-10-20T21:43:47.089Z,9.00
2023-10-20T21:46:14.504Z,9.10
2023-10-20T21:48:41.708Z,9.10
2023-10-20T21:51:11.949Z,9.10
2023-10-20T21:53:42.435Z,9.10
2023-10-20T21:56:10.361Z,9.20
2023-10-20T21:58:40.662Z,9.30
2023-10-20T22:01:10.309Z,9.30
2023-10-20T22:03:39.381Z,9.40
2023-10-20T22:06:08.163Z,9.50
2023-10-20T22:08:35.335Z,9.60
2023-10-20T22:11:02.543Z,9.60
2023-10-20T22:13:29.389Z,9.70
2023-10-20T22:15:56.860Z,9.70
2023-10-20T22:18:23.919Z,9.80
2023-10-20T22:20:51.142Z,9.90
2023-10-20T22:23:23.191Z,9.90
2023-10-20T22:25:50.304Z,10.00
2023-10-20T22:28:17.196Z,10.10
2023-10-20T22:30:44.184Z,10.10
2023-10-20T22:33:11.221Z,10.10
2023-10-20T22:35:38.148Z,10.20
2023-10-20T22:38:05.113Z,10.20
2023-10-20T22:40:31.962Z,10.20
2023-10-20T22:42:58.807Z,10.20
2023-10-20T22:45:25.746Z,10.10
2023-10-20T22:47:52.883Z,10.10
2023-10-20T22:50:20.476Z,10.10
2023-10-20T22:52:48.081Z,10.10
2023-10-20T22:55:15.569Z,10.10
2023-10-20T22:57:43.448Z,10.10
2023-10-20T23:00:11.299Z,10.10
2023-10-20T23:02:39.611Z,10.00
2023-10-20T23:05:08.606Z,10.00
2023-10-20T23:07:35.938Z,10.00
2023-10-20T23:10:04.760Z,10.00
2023-10-20T23:12:35.999Z,10.00
2023-10-20T23:15:03.008Z,9.90
2023-10-20T23:17:29.950Z,9.90
2023-10-20T23:19:57.893Z,9.90
2023-10-20T23:22:26.249Z,9.90
2023-10-20T23:24:54.272Z,9.90
2023-10-20T23:27:21.341Z,9.90
2023-10-20T23:29:48.445Z,9.80
2023-10-20T23:32:15.355Z,9.90
2023-10-20T23:34:42.485Z,9.80
2023-10-20T23:37:09.426Z,9.90
2023-10-20T23:39:37.085Z,9.90
2023-10-20T23:42:05.344Z,9.90
2023-10-20T23:44:32.804Z,9.90
2023-10-20T23:46:59.672Z,9.90
2023-10-20T23:49:26.815Z,9.90
2023-10-20T23:51:53.744Z,9.90
2023-10-20T23:54:20.728Z,9.90
2023-10-20T23:56:47.877Z,9.80
2023-10-20T23:59:14.771Z,9.70
